Time;durP1;ratioP1;P1;durP2;ratioP2;P2;SDS_P1;SDS_P2;PMS_P1;PMS_P2;Temp;Humidity;BMP_temperature;BMP_pressure;BME280_temperature;BME280_humidity;BME280_pressure;Samples;Min_cycle;Max_cycle;Signal;HPM_P1;HPM_P2
2022/12/16 00:01:07;;;;;;;504.13;156.57;;;4.50;99.90;;;;;;5091887;28;19907;-78
2022/12/16 00:03:33;;;;;;;390.52;141.93;;;4.60;99.90;;;;;;5073635;28;20040;-79
2022/12/16 00:06:02;;;;;;;474.25;158.95;;;4.60;99.90;;;;;;5092042;28;20623;-78
2022/12/16 00:08:28;;;;;;;395.75;152.40;;;4.50;99.90;;;;;;5091862;28;20035;-78
2022/12/16 00:10:58;;;;;;;496.33;173.48;;;4.60;99.90;;;;;;5091678;28;20114;-79
2022/12/16 00:13:24;;;;;;;368.42;146.98;;;4.60;99.90;;;;;;5093032;28;20490;-78
2022/12/16 00:15:50;;;;;;;323.73;135.35;;;4.50;99.90;;;;;;5095556;28;20540;-78
2022/12/16 00:18:18;;;;;;;380.15;144.77;;;4.50;99.90;;;;;;5095334;28;20058;-78
2022/12/16 00:20:51;;;;;;;329.08;136.52;;;4.60;99.90;;;;;;5095066;28;20451;-78
2022/12/16 00:23:17;;;;;;;467.20;160.52;;;4.60;99.90;;;;;;5095312;28;20436;-77
2022/12/16 00:25:45;;;;;;;357.50;142.18;;;4.50;99.90;;;;;;5095053;28;20036;-78
2022/12/16 00:28:12;;;;;;;333.85;135.57;;;4.50;99.90;;;;;;5095575;28;20505;-78
2022/12/16 00:30:38;;;;;;;441.02;164.90;;;4.60;99.90;;;;;;5095090;28;20036;-79
2022/12/16 00:33:05;;;;;;;446.25;168.15;;;4.60;99.90;;;;;;5095107;28;20497;-78
2022/12/16 00:35:31;;;;;;;505.77;172.98;;;4.60;99.90;;;;;;5095073;28;20087;-78
2022/12/16 00:37:57;;;;;;;409.15;155.40;;;4.60;99.90;;;;;;5095311;28;20065;-78
2022/12/16 00:40:24;;;;;;;510.50;178.63;;;4.50;99.90;;;;;;5095559;28;20054;-78
2022/12/16 00:42:50;;;;;;;442.40;165.38;;;4.50;99.90;;;;;;5094964;28;20040;-78
2022/12/16 00:45:16;;;;;;;395.60;156.52;;;4.30;99.90;;;;;;5095116;28;20489;-78
2022/12/16 00:47:42;;;;;;;339.33;142.70;;;4.40;99.90;;;;;;5094992;28;20028;-78
2022/12/16 00:50:08;;;;;;;357.60;142.00;;;4.40;99.90;;;;;;5094909;28;20024;-78
2022/12/16 00:52:34;;;;;;;267.67;124.45;;;4.40;99.90;;;;;;5094834;28;20059;-78
2022/12/16 00:55:01;;;;;;;255.68;123.53;;;4.40;99.90;;;;;;5094681;28;20462;-78
2022/12/16 00:57:27;;;;;;;280.10;129.13;;;4.50;99.90;;;;;;5094745;28;20086;-78
2022/12/16 00:59:53;;;;;;;299.80;133.98;;;4.50;99.90;;;;;;5094809;28;20028;-78
2022/12/16 01:02:19;;;;;;;348.48;144.27;;;4.50;99.90;;;;;;5094420;28;20045;-78
2022/12/16 01:04:45;;;;;;;319.10;130.23;;;4.50;99.90;;;;;;5094460;28;20043;-78
2022/12/16 01:07:11;;;;;;;377.40;141.80;;;4.50;99.90;;;;;;5094677;28;20028;-78
2022/12/16 01:09:37;;;;;;;345.98;144.40;;;4.50;99.90;;;;;;5094078;28;20024;-78
2022/12/16 01:12:03;;;;;;;433.35;162.02;;;4.50;99.90;;;;;;5094478;28;20069;-78
2022/12/16 01:14:29;;;;;;;449.33;169.63;;;4.50;99.90;;;;;;5094434;28;20032;-78
2022/12/16 01:16:54;;;;;;;418.88;162.13;;;4.50;99.90;;;;;;5094247;28;20379;-78
2022/12/16 01:19:20;;;;;;;333.75;153.98;;;4.50;99.90;;;;;;5094360;28;20177;-78
2022/12/16 01:21:46;;;;;;;336.30;148.15;;;4.50;99.90;;;;;;5094188;28;20137;-78
2022/12/16 01:24:12;;;;;;;320.77;146.27;;;4.50;99.90;;;;;;5093632;28;20124;-78
2022/12/16 01:26:38;;;;;;;314.52;140.73;;;4.50;99.90;;;;;;5093520;28;20024;-78
2022/12/16 01:29:05;;;;;;;249.50;119.47;;;4.50;99.90;;;;;;5093904;28;20446;-78
2022/12/16 01:31:31;;;;;;;255.02;120.65;;;4.40;99.90;;;;;;5093698;28;20028;-78
2022/12/16 01:33:57;;;;;;;241.38;115.13;;;4.40;99.90;;;;;;5094016;28;20035;-78
2022/12/16 01:36:23;;;;;;;242.45;117.40;;;4.40;99.90;;;;;;5094136;28;20032;-78
2022/12/16 01:38:49;;;;;;;278.75;129.77;;;4.40;99.90;;;;;;5093901;28;20052;-78
2022/12/16 01:41:16;;;;;;;290.55;131.02;;;4.40;99.90;;;;;;5093859;28;20477;-79
2022/12/16 01:43:44;;;;;;;288.50;129.43;;;4.50;99.90;;;;;;5093754;28;20043;-78
2022/12/16 01:46:13;;;;;;;301.88;136.13;;;4.50;99.90;;;;;;5094110;28;20382;-78
2022/12/16 01:49:07;;;;;;;320.23;141.18;;;4.60;99.90;;;;;;5093582;28;20052;-78
2022/12/16 01:51:36;;;;;;;298.65;137.43;;;4.70;99.90;;;;;;5093186;28;20097;-78
2022/12/16 01:54:05;;;;;;;291.13;132.45;;;4.70;99.90;;;;;;5093420;28;20028;-78
2022/12/16 01:56:33;;;;;;;247.35;119.13;;;4.70;99.90;;;;;;5093784;28;20032;-79
2022/12/16 01:59:00;;;;;;;250.50;117.43;;;4.60;99.90;;;;;;5093605;28;20032;-78
2022/12/16 02:01:26;;;;;;;239.30;112.20;;;4.70;99.90;;;;;;5075208;28;20032;-79
2022/12/16 02:03:55;;;;;;;232.63;115.38;;;4.70;99.90;;;;;;5093436;28;20544;-78
2022/12/16 02:06:21;;;;;;;228.30;111.38;;;4.70;99.90;;;;;;5093332;28;20127;-78
2022/12/16 02:08:53;;;;;;;234.60;116.60;;;4.70;99.90;;;;;;5093187;28;20024;-78
2022/12/16 02:11:34;;;;;;;239.15;112.47;;;4.70;99.90;;;;;;5093292;28;20081;-78
2022/12/16 02:14:19;;;;;;;249.75;117.22;;;4.70;99.90;;;;;;5093596;28;20054;-78
2022/12/16 02:16:52;;;;;;;265.95;123.47;;;4.70;99.90;;;;;;5092964;28;20032;-79
2022/12/16 02:19:20;;;;;;;256.52;116.25;;;4.70;99.90;;;;;;5093384;28;20044;-78
2022/12/16 02:22:26;;;;;;;243.10;111.55;;;4.70;99.90;;;;;;5092850;28;20081;-78
2022/12/16 02:25:26;;;;;;;275.17;119.25;;;4.60;99.90;;;;;;5093231;28;20451;-78
2022/12/16 02:28:11;;;;;;;301.83;131.30;;;4.70;99.90;;;;;;5093297;28;20077;-80
2022/12/16 02:30:56;;;;;;;340.30;144.98;;;4.70;99.90;;;;;;5092933;28;20039;-78
2022/12/16 02:33:29;;;;;;;274.67;124.88;;;4.70;99.90;;;;;;5093002;28;20039;-79
2022/12/16 02:36:01;;;;;;;291.52;137.65;;;4.60;99.90;;;;;;5074488;28;20028;-78
2022/12/16 02:38:38;;;;;;;294.10;136.88;;;4.70;99.90;;;;;;5092932;28;20469;-79
2022/12/16 02:41:11;;;;;;;303.23;136.20;;;4.80;99.90;;;;;;5092831;28;20032;-78
2022/12/16 02:43:49;;;;;;;293.10;134.57;;;4.90;99.90;;;;;;5092589;28;20481;-78
2022/12/16 02:46:17;;;;;;;324.67;145.15;;;5.00;99.90;;;;;;5092988;28;20036;-78
2022/12/16 02:48:43;;;;;;;307.10;142.00;;;5.10;99.90;;;;;;5092545;28;20032;-78
2022/12/16 02:51:09;;;;;;;310.05;140.63;;;5.10;99.90;;;;;;5092545;28;20039;-78
2022/12/16 02:53:38;;;;;;;309.23;141.60;;;5.20;99.90;;;;;;5092524;28;20020;-78
2022/12/16 02:56:43;;;;;;;319.80;149.18;;;5.20;99.90;;;;;;5092792;28;20101;-79
2022/12/16 02:59:28;;;;;;;313.55;142.93;;;5.30;99.90;;;;;;5054440;28;20609;-79
2022/12/16 03:02:05;;;;;;;337.30;151.63;;;5.30;99.90;;;;;;5092528;28;20024;-79
2022/12/16 03:04:48;;;;;;;288.05;136.77;;;5.30;99.90;;;;;;5092516;28;20111;-78
2022/12/16 03:07:17;;;;;;;263.02;120.93;;;5.30;99.90;;;;;;5092381;28;20459;-78
2022/12/16 03:09:45;;;;;;;257.63;117.68;;;5.20;99.90;;;;;;5092049;28;20481;-79
2022/12/16 03:12:14;;;;;;;258.55;107.55;;;5.10;99.90;;;;;;5092543;28;20481;-78
2022/12/16 03:14:45;;;;;;;255.15;101.25;;;5.10;99.90;;;;;;5092521;28;20039;-79
2022/12/16 03:17:13;;;;;;;264.00;105.72;;;5.00;99.90;;;;;;5092258;28;20031;-78
2022/12/16 03:19:44;;;;;;;267.35;97.50;;;4.90;99.90;;;;;;5092140;28;20036;-79
2022/12/16 03:22:22;;;;;;;296.38;104.43;;;4.80;99.90;;;;;;5092445;28;20024;-79
2022/12/16 03:24:48;;;;;;;294.58;106.22;;;4.70;99.90;;;;;;5092144;28;20024;-78
2022/12/16 03:28:02;;;;;;;303.17;108.40;;;4.70;99.90;;;;;;5092441;28;20024;-78
2022/12/16 03:30:34;;;;;;;345.90;113.00;;;4.60;99.90;;;;;;5083340;28;20040;-79
2022/12/16 03:33:17;;;;;;;340.45;108.13;;;4.60;99.90;;;;;;5092332;28;20545;-79
2022/12/16 03:35:49;;;;;;;355.30;114.15;;;4.60;99.90;;;;;;5092569;28;20086;-79
2022/12/16 03:38:17;;;;;;;390.17;117.60;;;4.60;99.90;;;;;;5092102;28;20440;-79
2022/12/16 03:40:44;;;;;;;376.52;113.68;;;4.60;99.90;;;;;;5092055;28;20039;-79
2022/12/16 03:43:13;;;;;;;363.42;113.55;;;4.50;99.90;;;;;;5092650;28;20020;-79
2022/12/16 03:45:42;;;;;;;460.75;129.63;;;4.60;99.90;;;;;;5091896;28;20461;-78
2022/12/16 03:48:10;;;;;;;379.20;116.25;;;4.70;99.90;;;;;;5093047;28;20020;-79
2022/12/16 03:50:38;;;;;;;453.33;131.48;;;4.70;99.90;;;;;;5095894;28;20028;-79
2022/12/16 03:53:05;;;;;;;398.08;120.85;;;4.80;99.90;;;;;;5095808;28;20031;-79
2022/12/16 03:55:31;;;;;;;369.05;114.75;;;4.80;99.90;;;;;;5095766;28;20084;-80
2022/12/16 03:57:58;;;;;;;427.98;128.98;;;4.80;99.90;;;;;;5096069;28;20024;-80
2022/12/16 04:00:24;;;;;;;399.85;120.03;;;4.80;99.90;;;;;;5096409;28;20488;-80
2022/12/16 04:02:51;;;;;;;391.48;128.25;;;4.80;99.90;;;;;;5096642;28;20028;-81
2022/12/16 04:05:17;;;;;;;378.10;124.05;;;4.90;99.90;;;;;;5095867;28;20024;-80
2022/12/16 04:07:43;;;;;;;453.95;136.82;;;5.00;99.90;;;;;;5095565;28;20103;-80
2022/12/16 04:10:09;;;;;;;374.67;123.68;;;5.00;99.90;;;;;;5094372;28;20108;-80
2022/12/16 04:27:23;;;;;;;334.20;121.78;;;5.60;99.90;;;;;;5095294;28;20031;-81
2022/12/16 04:29:22;;;;;;;331.48;118.20;;;5.60;99.90;;;;;;5095363;28;20082;-81
2022/12/16 04:31:49;;;;;;;361.48;133.70;;;5.70;99.90;;;;;;5095125;28;20031;-81
2022/12/16 04:34:30;;;;;;;469.92;149.23;;;5.80;99.90;;;;;;5095316;28;20028;-81
